Time;durP1;ratioP1;P1;durP2;ratioP2;P2;SDS_P1;SDS_P2;PMS_P1;PMS_P2;Temp;Humidity;BMP_temperature;BMP_pressure;BME280_temperature;BME280_humidity;BME280_pressure;Samples;Min_cycle;Max_cycle;Signal;HPM_P1;HPM_P2
2024/01/27 00:02:05;;;;;;;10.83;2.40;;;;;;;5.36;77.86;102457.75;5069428;28;20221;-77
2024/01/27 00:04:32;;;;;;;9.97;2.10;;;;;;;5.32;78.29;102445.53;5099356;22;20232;-80
2024/01/27 00:06:58;;;;;;;13.57;2.60;;;;;;;5.54;78.10;102417.78;5095293;28;20208;-80
2024/01/27 00:09:26;;;;;;;7.97;2.33;;;;;;;5.42;79.32;102412.19;5077890;28;20227;-82
2024/01/27 00:11:52;;;;;;;10.67;2.20;;;;;;;5.40;79.56;102409.53;5077497;28;20254;-81
2024/01/27 00:14:18;;;;;;;16.23;2.87;;;;;;;5.43;79.75;102394.13;5076649;28;20285;-81
2024/01/27 00:16:45;;;;;;;6.97;1.93;;;;;;;5.48;79.88;102384.78;5087790;28;20209;-83
2024/01/27 00:19:11;;;;;;;11.43;3.37;;;;;;;5.40;79.48;102388.81;5088872;28;20226;-82
2024/01/27 00:21:37;;;;;;;8.77;2.20;;;;;;;5.40;80.61;102391.41;5076475;28;20553;-80
2024/01/27 00:24:04;;;;;;;11.77;1.90;;;;;;;5.69;79.25;102379.44;5077593;28;20228;-80
2024/01/27 00:26:32;;;;;;;10.23;2.80;;;;;;;5.49;79.12;102396.00;5076888;28;20677;-80
2024/01/27 00:28:58;;;;;;;10.60;3.33;;;;;;;5.48;79.61;102395.13;5076536;28;20207;-80
2024/01/27 00:31:25;;;;;;;12.07;2.50;;;;;;;5.54;80.24;102372.03;5079341;28;20207;-81
2024/01/27 00:33:51;;;;;;;8.70;2.47;;;;;;;5.68;79.81;102364.69;5097246;28;20220;-81
2024/01/27 00:36:18;;;;;;;9.17;2.70;;;;;;;5.50;79.91;102374.47;5097046;28;20210;-80
2024/01/27 00:38:45;;;;;;;12.23;2.43;;;;;;;5.20;81.20;102382.97;5096642;28;20242;-80
2024/01/27 00:41:17;;;;;;;7.80;2.03;;;;;;;5.17;81.73;102356.97;5098141;28;20290;-80
2024/01/27 00:43:47;;;;;;;12.40;2.63;;;;;;;5.46;82.02;102329.44;5098323;28;20247;-81
2024/01/27 00:46:16;;;;;;;9.70;2.20;;;;;;;5.44;82.00;102323.34;5098931;28;20646;-80
2024/01/27 00:48:42;;;;;;;10.50;2.43;;;;;;;5.47;81.58;102314.78;5099088;28;20211;-79
2024/01/27 00:51:08;;;;;;;16.20;2.77;;;;;;;5.28;82.88;102308.16;5098545;28;20205;-80
2024/01/27 00:53:35;;;;;;;14.40;2.57;;;;;;;5.47;82.47;102304.44;5098160;28;20861;-81
2024/01/27 00:56:02;;;;;;;10.83;2.70;;;;;;;5.20;83.36;102305.31;5097111;28;20194;-81
2024/01/27 00:58:29;;;;;;;12.50;2.73;;;;;;;5.36;83.44;102294.59;5098678;28;20214;-81
2024/01/27 01:00:58;;;;;;;13.67;2.47;;;;;;;5.44;83.18;102276.72;5097441;28;20199;-81
2024/01/27 01:03:24;;;;;;;9.37;2.40;;;;;;;5.43;82.77;102279.25;5096658;28;20670;-80
2024/01/27 01:05:51;;;;;;;13.77;2.97;;;;;;;5.33;83.20;102276.41;5097663;28;20211;-80
2024/01/27 01:08:18;;;;;;;8.67;2.43;;;;;;;5.64;82.79;102279.94;5098355;28;20202;-81
2024/01/27 01:10:45;;;;;;;12.60;2.70;;;;;;;5.58;82.77;102292.72;5093028;28;20260;-82
2024/01/27 01:13:12;;;;;;;12.53;2.77;;;;;;;5.55;82.77;102293.50;5076510;28;20205;-79
2024/01/27 01:15:39;;;;;;;10.00;2.33;;;;;;;5.49;83.38;102295.91;5077008;28;20206;-82
2024/01/27 01:18:07;;;;;;;11.67;3.03;;;;;;;5.58;82.97;102282.34;5097506;28;20253;-79
2024/01/27 01:20:34;;;;;;;10.17;2.60;;;;;;;5.58;83.33;102287.53;5078821;28;20303;-80
2024/01/27 01:23:00;;;;;;;7.97;1.97;;;;;;;5.46;84.10;102284.56;5077640;28;20625;-80
2024/01/27 01:25:27;;;;;;;12.23;3.20;;;;;;;5.27;84.45;102264.94;5076935;28;20233;-82
2024/01/27 01:27:53;;;;;;;14.03;2.67;;;;;;;5.43;85.05;102243.91;5076690;28;20202;-80
2024/01/27 01:30:22;;;;;;;10.83;2.53;;;;;;;5.10;85.95;102242.00;5076907;28;20206;-81
2024/01/27 01:32:50;;;;;;;11.70;2.87;;;;;;;5.31;85.70;102223.69;5097086;28;20257;-82
2024/01/27 01:35:18;;;;;;;7.93;2.13;;;;;;;5.11;86.78;102223.06;5097341;28;20274;-81
2024/01/27 01:37:44;;;;;;;16.13;3.73;;;;;;;5.10;86.79;102203.16;5096961;28;20194;-81
2024/01/27 01:40:12;;;;;;;16.77;2.93;;;;;;;4.94;87.07;102193.16;5096949;28;20215;-81
2024/01/27 01:42:38;;;;;;;9.07;2.87;;;;;;;5.18;86.09;102191.34;5097488;28;20267;-81
2024/01/27 01:45:05;;;;;;;8.80;2.40;;;;;;;5.09;87.47;102188.44;5096397;28;20339;-81
2024/01/27 01:47:31;;;;;;;11.40;2.37;;;;;;;5.10;87.34;102166.06;5095622;28;20205;-80
2024/01/27 01:49:59;;;;;;;8.30;2.23;;;;;;;4.96;86.78;102179.44;5087686;28;20203;-82
2024/01/27 01:52:27;;;;;;;18.00;3.20;;;;;;;4.96;86.70;102183.72;5095893;28;20297;-81
2024/01/27 01:54:54;;;;;;;12.07;2.57;;;;;;;5.14;86.45;102181.72;5095925;28;20234;-81
2024/01/27 01:57:20;;;;;;;14.50;2.90;;;;;;;5.11;86.34;102185.91;5096625;28;20210;-81
2024/01/27 01:59:47;;;;;;;17.13;3.60;;;;;;;5.10;86.47;102182.44;5096326;28;20201;-82
2024/01/27 02:02:14;;;;;;;13.43;3.03;;;;;;;5.23;85.58;102203.53;5096860;28;20243;-81
2024/01/27 02:04:41;;;;;;;11.27;2.50;;;;;;;4.87;86.03;102230.88;5095530;28;20287;-81
2024/01/27 02:07:08;;;;;;;12.53;2.70;;;;;;;5.00;86.44;102208.00;5096607;28;20206;-79
2024/01/27 02:09:37;;;;;;;10.63;2.50;;;;;;;5.00;86.49;102197.66;5096503;28;20207;-80
2024/01/27 02:12:03;;;;;;;20.03;3.67;;;;;;;4.88;87.20;102191.25;5096443;28;20730;-81
2024/01/27 02:14:30;;;;;;;11.97;3.23;;;;;;;4.81;87.96;102180.63;5095920;28;20229;-81
2024/01/27 02:16:57;;;;;;;9.37;2.67;;;;;;;4.51;89.00;102164.16;5095881;28;20241;-81
2024/01/27 02:19:23;;;;;;;19.47;3.57;;;;;;;4.63;89.63;102139.53;5087463;28;20205;-81
2024/01/27 02:21:50;;;;;;;14.27;4.23;;;;;;;4.87;88.27;102118.75;5096272;28;20225;-81
2024/01/27 02:24:18;;;;;;;9.50;2.83;;;;;;;4.71;87.90;102151.88;5095769;28;20226;-80
2024/01/27 02:26:45;;;;;;;23.10;4.10;;;;;;;4.74;87.96;102158.88;5096273;28;20664;-81
2024/01/27 02:29:11;;;;;;;9.57;2.83;;;;;;;4.72;87.87;102176.06;5096128;28;20202;-79
2024/01/27 02:31:38;;;;;;;13.50;3.60;;;;;;;4.56;88.71;102164.31;5093238;28;20216;-79
2024/01/27 02:34:04;;;;;;;10.33;2.43;;;;;;;4.74;89.54;102146.81;5076384;28;20222;-81
2024/01/27 02:36:30;;;;;;;12.17;2.70;;;;;;;4.51;89.31;102143.44;5085585;28;20239;-80
2024/01/27 02:38:57;;;;;;;11.33;2.80;;;;;;;4.67;89.62;102133.63;5096482;28;20199;-81
2024/01/27 02:41:24;;;;;;;17.67;4.23;;;;;;;4.75;88.85;102148.56;5096532;28;20206;-78
2024/01/27 02:43:51;;;;;;;11.67;4.17;;;;;;;4.69;88.94;102148.34;5096299;28;20279;-81
2024/01/27 02:46:18;;;;;;;13.47;3.33;;;;;;;4.55;90.33;102134.09;5099819;28;20203;-81
2024/01/27 02:48:45;;;;;;;10.53;3.63;;;;;;;4.48;89.75;102132.13;5097060;28;20253;-80
2024/01/27 02:51:11;;;;;;;16.73;3.37;;;;;;;4.68;89.68;102136.28;5080158;28;20658;-81
2024/01/27 02:53:39;;;;;;;9.37;3.57;;;;;;;4.74;89.17;102141.63;5079810;28;20312;-82
2024/01/27 02:56:08;;;;;;;13.47;3.57;;;;;;;4.60;89.22;102144.59;5079321;28;20616;-80
2024/01/27 02:58:36;;;;;;;15.13;3.60;;;;;;;4.68;88.42;102167.31;5079554;28;20220;-82
2024/01/27 03:01:02;;;;;;;8.83;2.77;;;;;;;4.47;89.17;102153.66;5078780;28;20205;-82
2024/01/27 03:03:30;;;;;;;11.37;4.70;;;;;;;4.49;90.54;102132.19;5088406;28;20251;-82
2024/01/27 03:05:56;;;;;;;17.00;3.97;;;;;;;4.45;91.38;102111.34;5098855;28;20746;-80
2024/01/27 03:08:22;;;;;;;19.37;3.43;;;;;;;4.52;91.25;102110.72;5099480;28;20205;-81
2024/01/27 03:10:49;;;;;;;14.57;4.50;;;;;;;4.76;89.88;102141.69;5092302;28;20207;-80
2024/01/27 03:13:16;;;;;;;9.87;3.33;;;;;;;4.28;91.35;102141.78;5082891;28;20207;-81
2024/01/27 03:15:44;;;;;;;13.83;4.30;;;;;;;4.68;90.17;102130.22;5079745;28;20680;-81
2024/01/27 03:18:11;;;;;;;13.57;3.33;;;;;;;4.44;90.49;102145.78;5084552;28;20280;-81
2024/01/27 03:20:37;;;;;;;12.70;4.10;;;;;;;4.45;90.99;102134.63;5097523;28;20615;-80
2024/01/27 03:23:04;;;;;;;15.33;4.43;;;;;;;4.47;90.78;102140.72;5098242;28;20242;-81
2024/01/27 03:25:30;;;;;;;11.07;4.90;;;;;;;4.40;90.87;102144.81;5099349;28;20230;-82
2024/01/27 03:27:56;;;;;;;14.57;4.93;;;;;;;4.75;90.40;102129.56;5099725;28;20199;-83
2024/01/27 03:30:23;;;;;;;20.80;4.30;;;;;;;4.71;89.72;102159.63;5099567;28;20563;-82
2024/01/27 03:32:51;;;;;;;18.80;4.17;;;;;;;4.75;89.63;102166.66;5092561;28;20228;-81
2024/01/27 03:35:18;;;;;;;15.90;4.10;;;;;;;4.62;90.24;102163.63;5102128;28;20257;-83
2024/01/27 03:37:45;;;;;;;11.57;3.87;;;;;;;4.43;90.62;102172.47;5100603;28;20267;-81
2024/01/27 03:40:13;;;;;;;14.70;3.97;;;;;;;4.54;90.15;102155.63;5100748;28;20256;-83
2024/01/27 03:42:39;;;;;;;12.23;3.93;;;;;;;4.50;90.56;102162.41;5100518;28;20702;-83
2024/01/27 03:45:06;;;;;;;21.63;4.60;;;;;;;4.65;90.42;102158.56;5100282;28;20253;-82
2024/01/27 03:47:33;;;;;;;16.70;4.07;;;;;;;4.78;88.74;102178.84;5099697;28;20198;-81
2024/01/27 03:50:04;;;;;;;10.27;4.87;;;;;;;4.45;89.20;102201.84;5086874;28;20219;-82
2024/01/27 03:52:30;;;;;;;16.40;4.33;;;;;;;4.48;89.67;102199.34;5080091;28;20221;-81
2024/01/27 03:54:57;;;;;;;10.37;4.17;;;;;;;4.27;90.54;102197.78;5091123;28;20235;-82
2024/01/27 03:57:24;;;;;;;16.73;5.03;;;;;;;4.35;90.85;102174.78;5098799;28;20713;-81
2024/01/27 03:59:50;;;;;;;18.97;4.70;;;;;;;4.43;91.46;102159.56;5098694;28;20210;-82
2024/01/27 04:02:18;;;;;;;9.57;4.13;;;;;;;4.21;91.28;102176.03;5099573;28;20771;-81
2024/01/27 04:04:44;;;;;;;12.83;3.93;;;;;;;4.02;92.52;102162.44;5080051;28;20261;-81
2024/01/27 04:07:13;;;;;;;18.73;4.23;;;;;;;3.93;93.15;102155.25;5079918;28;20203;-82
2024/01/27 04:09:39;;;;;;;12.40;4.10;;;;;;;4.09;92.43;102140.28;5078845;28;20264;-82
2024/01/27 04:12:06;;;;;;;14.10;3.70;;;;;;;3.90;93.36;102136.16;5079770;28;20204;-81
2024/01/27 04:14:33;;;;;;;14.73;4.40;;;;;;;4.06;93.16;102135.88;5079252;28;20687;-82
2024/01/27 04:17:00;;;;;;;16.90;6.80;;;;;;;4.08;92.72;102133.34;5090018;28;20203;-82
2024/01/27 04:19:26;;;;;;;16.73;3.87;;;;;;;4.11;92.45;102131.75;5082757;28;20219;-83
2024/01/27 04:21:53;;;;;;;17.27;5.30;;;;;;;4.07;92.58;102147.13;5090809;28;20784;-82
2024/01/27 04:24:22;;;;;;;9.90;3.87;;;;;;;4.04;91.45;102152.16;5098029;28;20704;-81
2024/01/27 04:26:49;;;;;;;12.30;4.67;;;;;;;4.04;91.86;102159.91;5098302;28;20210;-83
2024/01/27 04:29:16;;;;;;;13.90;3.40;;;;;;;3.89;92.28;102160.25;5097881;28;20215;-82
2024/01/27 04:31:44;;;;;;;18.07;4.00;;;;;;;4.09;92.14;102148.03;5097972;28;20205;-81
2024/01/27 04:34:11;;;;;;;9.33;3.77;;;;;;;4.32;90.48;102167.81;5097600;28;20225;-82
2024/01/27 04:36:38;;;;;;;11.03;3.80;;;;;;;4.08;90.01;102197.94;5098082;28;20235;-81
2024/01/27 04:39:05;;;;;;;10.53;3.23;;;;;;;4.30;90.09;102207.34;5097713;28;20209;-81
2024/01/27 04:41:33;;;;;;;12.97;3.80;;;;;;;4.25;88.66;102229.59;5096968;28;20301;-82
2024/01/27 04:44:00;;;;;;;18.00;3.80;;;;;;;4.26;89.24;102221.00;5096409;28;20225;-82
2024/01/27 04:46:27;;;;;;;5.73;2.80;;;;;;;4.38;88.14;102234.38;5097566;28;20221;-81
2024/01/27 04:48:54;;;;;;;17.00;3.87;;;;;;;4.42;87.91;102259.50;5088631;28;20206;-83
2024/01/27 04:51:21;;;;;;;16.03;3.67;;;;;;;4.37;87.38;102272.25;5096332;28;20567;-82
2024/01/27 04:53:48;;;;;;;15.87;4.20;;;;;;;4.15;87.60;102286.09;5096644;28;20735;-81
2024/01/27 04:56:17;;;;;;;11.37;3.63;;;;;;;4.32;87.73;102276.41;5096632;28;20274;-81
2024/01/27 04:58:46;;;;;;;13.07;2.97;;;;;;;4.44;86.13;102301.81;5095699;28;20583;-81
2024/01/27 05:01:13;;;;;;;16.87;4.27;;;;;;;4.06;89.26;102302.97;5097353;28;20202;-82
2024/01/27 05:03:39;;;;;;;7.90;4.07;;;;;;;4.32;88.39;102288.41;5096317;28;20291;-81
2024/01/27 05:06:09;;;;;;;11.17;3.67;;;;;;;4.21;86.30;102320.75;5097014;28;20208;-82
2024/01/27 05:08:36;;;;;;;7.63;3.20;;;;;;;3.99;89.21;102327.69;5096637;28;20245;-83
2024/01/27 05:11:05;;;;;;;10.37;3.83;;;;;;;3.86;89.78;102300.50;5096952;28;20671;-81
2024/01/27 05:13:31;;;;;;;16.73;4.33;;;;;;;3.60;90.95;102280.53;5096403;28;20296;-83
2024/01/27 05:16:00;;;;;;;8.87;3.80;;;;;;;3.93;90.88;102252.53;5088688;28;20210;-79
2024/01/27 05:18:30;;;;;;;18.47;4.03;;;;;;;4.06;90.90;102252.16;5096276;28;20756;-82
2024/01/27 05:20:57;;;;;;;12.30;3.60;;;;;;;4.18;88.95;102277.56;5096209;28;20203;-82
2024/01/27 05:23:27;;;;;;;12.60;3.83;;;;;;;4.09;89.81;102272.09;5096165;28;20823;-80
2024/01/27 05:25:54;;;;;;;17.00;5.97;;;;;;;3.87;90.40;102279.03;5096681;28;20656;-82
2024/01/27 05:28:21;;;;;;;7.80;3.63;;;;;;;4.07;89.98;102272.03;5095971;28;20238;-84
2024/01/27 05:30:47;;;;;;;7.53;3.13;;;;;;;4.18;88.45;102288.81;5095863;28;20255;-81
2024/01/27 05:33:17;;;;;;;8.47;3.23;;;;;;;4.30;86.88;102326.25;5097445;28;20205;-80
2024/01/27 05:35:44;;;;;;;9.97;3.20;;;;;;;4.32;86.30;102356.53;5095665;28;20656;-82
2024/01/27 05:38:11;;;;;;;11.30;4.03;;;;;;;4.39;85.79;102370.56;5096035;28;20206;-81
2024/01/27 05:40:38;;;;;;;5.53;2.37;;;;;;;4.49;84.64;102388.19;5095158;28;20205;-81
2024/01/27 05:43:05;;;;;;;7.70;3.17;;;;;;;4.49;83.62;102418.34;5076944;28;20311;-82
2024/01/27 05:45:32;;;;;;;8.03;2.70;;;;;;;4.41;83.09;102441.31;5075515;28;20310;-82
2024/01/27 05:47:59;;;;;;;10.63;3.50;;;;;;;4.34;83.24;102470.31;5095359;28;20202;-81
2024/01/27 05:50:30;;;;;;;9.47;3.17;;;;;;;4.34;82.93;102478.97;5079515;28;20222;-82
2024/01/27 05:52:57;;;;;;;7.67;3.20;;;;;;;4.36;82.66;102491.94;5078899;28;20216;-81
2024/01/27 05:55:24;;;;;;;10.83;3.10;;;;;;;4.11;83.36;102505.59;5095744;28;20601;-83
2024/01/27 05:57:51;;;;;;;6.87;2.87;;;;;;;4.17;83.86;102488.63;5085810;28;20231;-80
2024/01/27 06:00:18;;;;;;;8.43;2.83;;;;;;;4.17;83.39;102498.97;5075621;28;20221;-82
2024/01/27 06:02:48;;;;;;;5.00;2.70;;;;;;;4.14;83.48;102501.44;5085863;28;20656;-82
2024/01/27 06:05:14;;;;;;;9.27;3.03;;;;;;;4.10;82.65;102511.56;5132203;22;20266;-77
2024/01/27 06:07:43;;;;;;;6.83;2.57;;;;;;;4.00;83.35;102514.59;5063631;28;20672;-77
2024/01/27 06:10:10;;;;;;;6.90;2.80;;;;;;;4.05;83.32;102519.16;5071618;28;20672;-77
2024/01/27 06:12:37;;;;;;;8.10;2.93;;;;;;;4.03;83.16;102527.66;5072167;28;20632;-77
2024/01/27 06:15:03;;;;;;;7.97;3.70;;;;;;;4.06;82.91;102527.78;5051701;28;20273;-77
2024/01/27 06:17:30;;;;;;;8.40;3.47;;;;;;;3.87;83.77;102519.28;5051440;28;20207;-77
2024/01/27 06:19:56;;;;;;;8.07;3.60;;;;;;;3.73;85.86;102495.44;5053170;28;20265;-77
2024/01/27 06:22:22;;;;;;;8.17;3.13;;;;;;;3.88;85.09;102471.94;5055426;28;20211;-77
2024/01/27 06:24:50;;;;;;;12.17;3.10;;;;;;;3.73;84.51;102481.66;5055367;28;20776;-76
2024/01/27 06:27:17;;;;;;;9.83;3.73;;;;;;;3.54;87.41;102461.91;5054498;28;20210;-77
2024/01/27 06:29:44;;;;;;;7.67;4.37;;;;;;;3.81;86.86;102423.44;5053876;28;20203;-76
2024/01/27 06:32:10;;;;;;;14.50;4.60;;;;;;;3.73;87.92;102415.38;5054155;28;20230;-77
2024/01/27 06:34:36;;;;;;;13.23;5.03;;;;;;;3.93;86.98;102400.69;5054682;28;20634;-77
2024/01/27 06:37:03;;;;;;;12.87;3.90;;;;;;;4.00;85.80;102417.28;5054854;28;20733;-76
2024/01/27 06:39:30;;;;;;;9.00;3.53;;;;;;;4.10;84.65;102449.56;5054588;28;20206;-77
2024/01/27 06:41:57;;;;;;;11.13;3.83;;;;;;;4.01;84.85;102460.41;5054588;28;20695;-77
2024/01/27 06:44:24;;;;;;;10.30;3.57;;;;;;;3.87;86.03;102440.91;5053856;28;20229;-77
2024/01/27 06:46:51;;;;;;;8.70;4.53;;;;;;;3.87;86.91;102428.84;5054321;28;20217;-76
2024/01/27 06:49:17;;;;;;;8.63;3.60;;;;;;;3.85;86.49;102420.16;5055821;28;20211;-78
2024/01/27 06:51:44;;;;;;;14.00;4.13;;;;;;;3.81;85.86;102438.06;5055141;28;20210;-78
2024/01/27 06:54:10;;;;;;;10.90;3.20;;;;;;;3.70;88.08;102425.56;5055461;28;20266;-78
2024/01/27 06:56:37;;;;;;;7.43;3.43;;;;;;;3.53;87.47;102422.28;5056572;28;20265;-77
2024/01/27 06:59:04;;;;;;;9.97;4.03;;;;;;;3.79;87.69;102419.91;5055916;28;20211;-78
2024/01/27 07:01:31;;;;;;;11.40;4.03;;;;;;;3.90;86.80;102425.50;5046154;28;20210;-78
2024/01/27 07:03:57;;;;;;;6.87;3.10;;;;;;;3.94;85.87;102453.22;5056822;28;20243;-78
2024/01/27 07:06:23;;;;;;;14.53;4.30;;;;;;;3.93;85.15;102473.03;5056532;28;20212;-78
2024/01/27 07:08:50;;;;;;;11.13;3.93;;;;;;;3.96;84.68;102490.34;5056606;28;20211;-78
2024/01/27 07:11:16;;;;;;;14.53;5.23;;;;;;;4.00;84.53;102496.53;5056949;28;20237;-77
2024/01/27 07:13:42;;;;;;;7.20;3.50;;;;;;;3.97;84.48;102500.75;5056411;28;20203;-77
2024/01/27 07:16:10;;;;;;;8.53;3.60;;;;;;;3.95;83.88;102506.69;5055150;28;20231;-78
2024/01/27 07:18:36;;;;;;;8.80;4.03;;;;;;;3.94;83.68;102518.72;5056423;28;20208;-77
2024/01/27 07:21:03;;;;;;;11.43;4.90;;;;;;;3.81;85.26;102511.25;5054660;28;20206;-78
2024/01/27 07:23:29;;;;;;;8.70;3.70;;;;;;;3.84;84.89;102503.63;5055201;28;20226;-78
2024/01/27 07:25:57;;;;;;;12.63;4.17;;;;;;;3.90;83.90;102511.63;5056191;28;20258;-78
2024/01/27 07:28:23;;;;;;;15.93;5.17;;;;;;;3.80;84.04;102527.56;5056806;28;20247;-78
2024/01/27 07:30:49;;;;;;;13.33;4.10;;;;;;;3.84;83.93;102528.59;5054857;28;20203;-78
2024/01/27 07:33:17;;;;;;;8.37;4.33;;;;;;;3.85;84.08;102538.13;5056387;28;20264;-78
2024/01/27 07:35:43;;;;;;;18.93;5.70;;;;;;;3.88;84.40;102530.47;5055752;28;20281;-78
2024/01/27 07:38:10;;;;;;;10.43;4.23;;;;;;;3.84;84.59;102529.47;5055911;28;20200;-78
2024/01/27 07:40:36;;;;;;;10.87;3.97;;;;;;;3.88;84.23;102530.47;5055520;28;20212;-78
2024/01/27 07:43:04;;;;;;;7.63;4.10;;;;;;;3.79;84.57;102528.41;5056308;28;20270;-78
2024/01/27 07:45:30;;;;;;;9.10;4.37;;;;;;;3.72;85.96;102514.31;5055576;28;20227;-78
2024/01/27 07:47:57;;;;;;;8.30;4.30;;;;;;;3.77;85.99;102509.38;5056396;28;20203;-78
2024/01/27 07:50:24;;;;;;;9.83;4.73;;;;;;;3.76;87.11;102486.94;5055573;28;20254;-78
2024/01/27 07:52:51;;;;;;;17.77;4.80;;;;;;;3.80;86.55;102487.94;5054246;28;20206;-78
2024/01/27 07:55:18;;;;;;;9.30;5.57;;;;;;;3.85;86.56;102492.50;5054523;28;20223;-77
2024/01/27 07:57:44;;;;;;;8.73;5.10;;;;;;;3.86;86.26;102483.91;5054684;28;20236;-78
2024/01/27 08:00:11;;;;;;;10.17;4.37;;;;;;;3.94;85.66;102495.47;5047213;28;20627;-78
2024/01/27 08:02:37;;;;;;;13.70;4.47;;;;;;;4.00;85.72;102504.28;5056429;28;20209;-78
2024/01/27 08:05:04;;;;;;;11.67;5.53;;;;;;;3.72;87.53;102485.03;5055261;28;20230;-78
2024/01/27 08:07:32;;;;;;;6.80;4.87;;;;;;;3.88;87.72;102477.09;5056076;28;20696;-78
2024/01/27 08:09:58;;;;;;;10.30;5.33;;;;;;;3.95;87.07;102461.03;5054602;28;20207;-78
2024/01/27 08:12:24;;;;;;;8.03;4.80;;;;;;;4.05;86.95;102479.50;5055464;28;20245;-78
2024/01/27 08:14:51;;;;;;;17.80;6.00;;;;;;;4.07;86.77;102480.47;5053967;28;20222;-78
2024/01/27 08:17:17;;;;;;;8.70;4.80;;;;;;;4.08;86.62;102479.63;5053933;28;20680;-77
2024/01/27 08:19:43;;;;;;;10.40;5.37;;;;;;;4.05;86.71;102482.97;5054340;28;20737;-78
2024/01/27 08:22:10;;;;;;;13.20;6.07;;;;;;;4.08;86.76;102484.78;5054538;28;20202;-78
2024/01/27 08:24:37;;;;;;;17.33;5.80;;;;;;;4.01;87.25;102487.97;5054731;28;20800;-78
2024/01/27 08:27:05;;;;;;;14.17;5.77;;;;;;;4.02;88.26;102453.53;5043893;28;20742;-78
2024/01/27 08:29:31;;;;;;;8.53;4.67;;;;;;;4.16;87.71;102460.13;5033044;28;20741;-77
2024/01/27 08:31:58;;;;;;;11.27;4.63;;;;;;;4.20;87.51;102469.78;5042165;28;20273;-77
2024/01/27 08:34:24;;;;;;;15.17;5.43;;;;;;;3.97;88.26;102468.88;5053190;28;20219;-77
2024/01/27 08:36:50;;;;;;;12.57;5.97;;;;;;;4.16;88.57;102449.78;5053572;28;20213;-78
2024/01/27 08:39:17;;;;;;;11.63;5.53;;;;;;;4.00;88.21;102453.47;5054277;28;20261;-78
2024/01/27 08:41:44;;;;;;;13.73;5.90;;;;;;;4.11;88.95;102434.13;5054710;28;20215;-79
2024/01/27 08:44:11;;;;;;;14.40;6.03;;;;;;;4.13;88.42;102445.41;5052575;28;20218;-80
2024/01/27 08:46:37;;;;;;;15.37;5.63;;;;;;;4.20;88.87;102436.16;5041744;28;20250;-80
2024/01/27 08:49:04;;;;;;;14.20;6.13;;;;;;;4.28;88.59;102426.13;5043240;28;20215;-79
2024/01/27 08:51:30;;;;;;;14.20;5.80;;;;;;;4.44;87.61;102444.03;5048730;28;20213;-81
2024/01/27 08:53:56;;;;;;;14.87;6.27;;;;;;;4.49;87.61;102451.94;5036165;28;20266;-80
2024/01/27 08:56:23;;;;;;;16.80;6.23;;;;;;;4.50;86.98;102462.38;5037418;28;20231;-80
2024/01/27 08:58:52;;;;;;;10.77;6.23;;;;;;;4.57;87.27;102477.28;5035888;28;20209;-80
2024/01/27 09:01:18;;;;;;;13.57;6.73;;;;;;;4.65;86.42;102494.81;5040341;28;20202;-81
2024/01/27 09:03:46;;;;;;;14.17;6.73;;;;;;;4.54;87.16;102499.56;5056540;28;20253;-81
2024/01/27 09:06:12;;;;;;;14.50;6.67;;;;;;;4.43;87.06;102506.91;5056467;28;20230;-80
2024/01/27 09:08:38;;;;;;;10.50;7.90;;;;;;;4.70;86.65;102506.22;5056135;28;20207;-81
2024/01/27 09:11:05;;;;;;;12.17;7.30;;;;;;;4.87;86.30;102517.19;5056526;28;20258;-81
2024/01/27 09:13:32;;;;;;;12.50;7.17;;;;;;;4.94;85.80;102532.16;5057089;28;20210;-81
2024/01/27 09:16:00;;;;;;;20.93;11.03;;;;;;;4.86;85.51;102538.75;5055552;28;20314;-81
2024/01/27 09:18:27;;;;;;;22.37;8.77;;;;;;;5.04;85.04;102542.03;5056464;28;20207;-81
2024/01/27 09:20:53;;;;;;;13.10;7.53;;;;;;;5.06;84.17;102561.09;5055403;28;20217;-79
2024/01/27 09:23:19;;;;;;;12.67;7.73;;;;;;;5.13;84.30;102576.03;5054683;28;20206;-80
2024/01/27 09:25:46;;;;;;;13.20;8.33;;;;;;;5.02;84.92;102587.66;5054579;28;20290;-81
2024/01/27 09:28:12;;;;;;;14.67;7.93;;;;;;;4.89;84.97;102593.19;5055459;28;20268;-80
2024/01/27 09:30:39;;;;;;;15.20;8.27;;;;;;;5.07;84.95;102587.84;5053450;28;20218;-81
2024/01/27 09:33:07;;;;;;;15.97;7.90;;;;;;;5.15;84.65;102582.16;5044234;28;20212;-81
2024/01/27 09:35:33;;;;;;;14.10;8.17;;;;;;;5.25;84.73;102588.56;5035057;28;20734;-79
2024/01/27 09:37:59;;;;;;;13.77;9.33;;;;;;;5.20;84.35;102584.91;5036570;28;20209;-79
2024/01/27 09:40:26;;;;;;;16.17;8.70;;;;;;;5.22;84.14;102593.59;5037134;28;20261;-81
2024/01/27 09:42:53;;;;;;;21.52;11.15;;;;;;;5.12;84.96;102587.19;5035071;28;20940;-81
2024/01/27 09:45:20;;;;;;;18.93;11.07;;;;;;;5.14;85.13;102588.13;5047404;28;20227;-80
2024/01/27 09:47:48;;;;;;;17.07;10.20;;;;;;;5.20;84.90;102587.50;5049007;28;20773;-80
2024/01/27 09:50:18;;;;;;;17.50;9.43;;;;;;;5.43;84.46;102597.81;5035683;28;20728;-80
2024/01/27 09:52:45;;;;;;;18.87;10.23;;;;;;;5.52;84.09;102616.28;5051843;28;20214;-78
2024/01/27 09:55:11;;;;;;;15.30;9.93;;;;;;;5.37;84.92;102616.59;5057435;28;20238;-79
2024/01/27 09:57:39;;;;;;;17.90;10.27;;;;;;;5.52;83.80;102616.28;5078393;28;20225;-78
2024/01/27 10:00:10;;;;;;;16.47;9.40;;;;;;;5.53;84.25;102631.91;5074693;28;20189;-78
2024/01/27 10:02:40;;;;;;;16.43;9.87;;;;;;;5.59;83.74;102644.22;5070378;28;20216;-78
2024/01/27 10:05:09;;;;;;;16.37;10.90;;;;;;;5.73;84.61;102629.16;5036185;28;20256;-78
2024/01/27 10:07:36;;;;;;;16.30;9.23;;;;;;;5.71;85.97;102615.28;5035900;28;20207;-79
2024/01/27 10:10:03;;;;;;;17.63;10.87;;;;;;;5.83;83.87;102601.84;5036480;28;20222;-77
2024/01/27 10:12:30;;;;;;;21.33;10.77;;;;;;;6.02;84.21;102600.81;5035549;28;20208;-77
2024/01/27 10:14:56;;;;;;;18.60;10.53;;;;;;;6.14;83.50;102624.56;5034523;28;20797;-76
2024/01/27 10:17:25;;;;;;;15.37;9.70;;;;;;;6.17;84.04;102637.66;5049432;28;20667;-76
2024/01/27 10:20:01;;;;;;;20.50;9.20;;;;;;;6.15;82.18;102657.47;5055018;28;20205;-77
2024/01/27 10:22:27;;;;;;;17.30;9.80;;;;;;;6.31;82.41;102669.25;5055237;28;20578;-77
2024/01/27 10:24:55;;;;;;;13.63;10.83;;;;;;;6.06;82.52;102688.25;5046362;28;20900;-77
2024/01/27 10:27:21;;;;;;;14.27;10.80;;;;;;;6.35;81.98;102678.91;5046479;28;20210;-76
2024/01/27 10:29:53;;;;;;;12.57;10.60;;;;;;;6.42;81.96;102691.28;5054117;28;20209;-76
2024/01/27 10:32:19;;;;;;;17.17;10.53;;;;;;;6.22;80.99;102716.50;5054578;28;20199;-76
2024/01/27 10:34:45;;;;;;;16.70;10.47;;;;;;;6.27;81.33;102733.09;5054392;28;20285;-76
2024/01/27 10:37:12;;;;;;;25.47;10.50;;;;;;;6.35;81.62;102739.44;5054454;28;20203;-76
2024/01/27 10:39:39;;;;;;;18.23;10.47;;;;;;;6.30;80.99;102753.06;5054069;28;20205;-76
2024/01/27 10:42:09;;;;;;;17.37;10.70;;;;;;;6.16;81.65;102742.19;5054332;28;20214;-76
2024/01/27 10:44:40;;;;;;;18.10;11.60;;;;;;;6.05;81.94;102730.56;5053483;28;20747;-76
2024/01/27 10:47:17;;;;;;;25.63;10.83;;;;;;;6.13;82.78;102711.00;5053518;28;20208;-76
2024/01/27 10:49:44;;;;;;;21.10;11.40;;;;;;;6.11;81.41;102728.22;5054826;28;20224;-78
2024/01/27 10:52:14;;;;;;;14.00;10.67;;;;;;;6.14;81.87;102713.66;5048023;28;20682;-79
2024/01/27 10:54:41;;;;;;;24.63;10.50;;;;;;;6.15;82.34;102714.53;5044964;28;20233;-78
2024/01/27 10:57:10;;;;;;;15.07;12.30;;;;;;;6.07;82.58;102710.78;5043359;28;20202;-78
2024/01/27 10:59:38;;;;;;;16.43;12.07;;;;;;;6.07;82.96;102701.28;5042971;28;20727;-79
2024/01/27 11:02:12;;;;;;;23.90;14.97;;;;;;;6.24;82.53;102685.44;5043188;28;20612;-79
2024/01/27 11:04:39;;;;;;;26.13;13.90;;;;;;;6.21;83.63;102686.22;5043591;28;20288;-81
2024/01/27 11:07:07;;;;;;;20.23;15.47;;;;;;;6.45;82.76;102678.41;5042944;28;20199;-79
2024/01/27 11:09:35;;;;;;;25.07;12.43;;;;;;;6.53;81.88;102687.31;5053658;28;20209;-78
2024/01/27 11:12:03;;;;;;;16.83;11.53;;;;;;;6.45;81.69;102691.38;5055867;28;20273;-79
2024/01/27 11:14:30;;;;;;;21.10;11.00;;;;;;;6.44;81.80;102696.50;5044308;28;20268;-79
2024/01/27 11:16:57;;;;;;;17.20;11.47;;;;;;;6.49;81.81;102685.44;5039984;28;20204;-81
2024/01/27 11:19:24;;;;;;;17.73;11.50;;;;;;;6.43;82.08;102681.78;5045919;28;20256;-81
2024/01/27 11:22:00;;;;;;;14.73;10.50;;;;;;;6.59;82.02;102665.00;5049437;28;20206;-78
2024/01/27 11:24:27;;;;;;;17.93;11.20;;;;;;;6.43;82.17;102679.19;5047091;28;20223;-78
2024/01/27 11:27:01;;;;;;;15.70;10.87;;;;;;;6.30;82.31;102670.06;5055426;28;20261;-78